createdAt,value
2019-05-30T00:00:28.174Z,50.88
2019-05-30T00:02:56.827Z,51.02
2019-05-30T00:05:23.055Z,51.03
2019-05-30T00:07:50.501Z,50.86
2019-05-30T00:10:17.913Z,50.63
2019-05-30T00:12:45.366Z,50.05
2019-05-30T00:15:12.815Z,51.02
2019-05-30T00:17:40.273Z,51.10
2019-05-30T00:20:07.707Z,51.19
2019-05-30T00:22:35.119Z,51.52
2019-05-30T00:25:04.247Z,51.87
2019-05-30T00:27:30.613Z,52.02
2019-05-30T00:29:59.224Z,51.68
2019-05-30T00:32:25.529Z,51.69
2019-05-30T00:34:52.957Z,51.63
2019-05-30T00:37:20.397Z,51.58
2019-05-30T00:39:47.824Z,52.70
2019-05-30T00:42:15.263Z,52.74
2019-05-30T00:44:42.703Z,51.86
2019-05-30T00:47:10.146Z,52.31
2019-05-30T00:49:37.622Z,52.40
2019-05-30T00:52:05.212Z,52.41
2019-05-30T00:54:32.578Z,52.69
2019-05-30T00:57:00.649Z,52.76
2019-05-30T00:59:27.470Z,52.61
2019-05-30T01:01:54.932Z,52.41
2019-05-30T01:04:22.403Z,51.88
2019-05-30T01:06:49.833Z,52.36
2019-05-30T01:09:17.292Z,53.29
2019-05-30T01:11:45.238Z,53.16
2019-05-30T01:14:12.744Z,53.09
2019-05-30T01:16:42.524Z,52.93
2019-05-30T01:19:07.622Z,52.96
2019-05-30T01:21:35.049Z,53.66
2019-05-30T01:24:03.539Z,53.59
2019-05-30T01:26:30.318Z,53.80
2019-05-30T01:28:57.751Z,54.10
2019-05-30T01:31:25.207Z,53.97
2019-05-30T01:33:52.646Z,54.05
2019-05-30T01:36:20.106Z,53.86
2019-05-30T01:38:47.527Z,53.98
2019-05-30T01:41:17.520Z,55.01
2019-05-30T01:43:42.438Z,54.47
2019-05-30T01:46:09.859Z,54.48
2019-05-30T01:48:37.334Z,55.35
2019-05-30T01:51:06.525Z,55.54
2019-05-30T01:53:33.029Z,55.34
2019-05-30T01:56:00.767Z,55.03
2019-05-30T01:58:27.915Z,54.79
2019-05-30T02:00:55.353Z,54.79
2019-05-30T02:03:22.774Z,55.03
2019-05-30T02:05:50.203Z,55.45
2019-05-30T02:08:17.620Z,55.62
2019-05-30T02:10:45.960Z,56.32
2019-05-30T02:13:13.459Z,55.71
2019-05-30T02:15:40.907Z,55.66
2019-05-30T02:18:08.339Z,55.75
2019-05-30T02:20:36.031Z,55.60
2019-05-30T02:23:05.773Z,56.08
2019-05-30T02:25:30.898Z,56.23
2019-05-30T02:27:58.471Z,57.33
2019-05-30T02:30:25.896Z,56.51
2019-05-30T02:32:53.326Z,56.55
2019-05-30T02:35:20.747Z,56.30
2019-05-30T02:37:48.201Z,57.39
2019-05-30T02:40:15.677Z,56.58
2019-05-30T02:42:43.089Z,56.48
2019-05-30T02:45:12.481Z,56.91
2019-05-30T02:47:37.975Z,57.59
2019-05-30T02:50:06.575Z,57.65
2019-05-30T02:52:33.000Z,57.19
2019-05-30T02:55:01.882Z,56.82
2019-05-30T02:57:27.916Z,57.14
2019-05-30T02:59:55.333Z,57.39
2019-05-30T03:02:22.796Z,57.67
2019-05-30T03:04:50.240Z,57.56
2019-05-30T03:07:17.690Z,57.56
2019-05-30T03:09:45.142Z,58.20
2019-05-30T03:12:13.413Z,57.87
2019-05-30T03:14:40.132Z,58.61
2019-05-30T03:17:10.268Z,58.06
2019-05-30T03:19:35.093Z,58.42
2019-05-30T03:22:03.511Z,58.24
2019-05-30T03:24:30.015Z,58.72
2019-05-30T03:26:57.468Z,58.60
2019-05-30T03:29:24.911Z,58.45
2019-05-30T03:31:52.375Z,58.46
2019-05-30T03:34:27.680Z,59.02
2019-05-30T03:36:47.322Z,59.03
2019-05-30T03:39:15.555Z,58.93
2019-05-30T03:41:42.266Z,59.05
2019-05-30T03:44:11.481Z,59.72
2019-05-30T03:46:37.736Z,59.66
2019-05-30T03:49:06.716Z,59.32
2019-05-30T03:51:32.619Z,60.07
2019-05-30T03:54:00.068Z,60.15
2019-05-30T03:56:28.283Z,59.62
2019-05-30T03:59:01.404Z,59.64
2019-05-30T04:01:44.525Z,59.56
2019-05-30T04:04:16.679Z,59.85
2019-05-30T04:06:46.198Z,60.02
2019-05-30T04:09:19.411Z,59.86
2019-05-30T04:11:42.632Z,60.21
2019-05-30T04:14:11.139Z,60.44
2019-05-30T04:16:39.021Z,60.62
2019-05-30T04:19:07.884Z,61.24
2019-05-30T04:21:33.911Z,62.37
2019-05-30T04:24:01.359Z,61.37
2019-05-30T04:26:28.810Z,62.53
2019-05-30T04:28:56.230Z,62.13
2019-05-30T04:31:23.695Z,61.87
2019-05-30T04:33:51.115Z,61.88
2019-05-30T04:36:19.101Z,62.59
2019-05-30T04:38:46.049Z,63.12
2019-05-30T04:41:15.698Z,63.29
2019-05-30T04:43:40.979Z,63.04
2019-05-30T04:46:10.419Z,63.62
2019-05-30T04:48:36.493Z,62.29
2019-05-30T04:51:04.146Z,63.33
2019-05-30T04:53:31.579Z,63.30
2019-05-30T04:55:59.035Z,63.38
2019-05-30T04:58:26.468Z,62.95
2019-05-30T05:00:53.906Z,63.59
2019-05-30T05:03:43.458Z,63.09
2019-05-30T05:05:49.955Z,63.15
2019-05-30T05:08:17.968Z,63.80
2019-05-30T05:10:44.841Z,63.94
2019-05-30T05:13:12.331Z,63.02
2019-05-30T05:15:39.705Z,63.42
2019-05-30T05:18:07.169Z,62.78
2019-05-30T05:20:36.224Z,63.13
2019-05-30T05:23:02.090Z,63.27
2019-05-30T05:25:29.513Z,63.83
2019-05-30T05:27:56.963Z,63.69
2019-05-30T05:30:24.475Z,63.68
2019-05-30T05:32:51.868Z,63.83
2019-05-30T05:35:19.315Z,63.95
2019-05-30T05:37:46.762Z,64.09
2019-05-30T05:40:14.200Z,63.51
2019-05-30T05:42:41.666Z,63.44
2019-05-30T05:45:10.139Z,63.17
2019-05-30T05:47:37.605Z,63.16
2019-05-30T05:50:05.043Z,63.91
2019-05-30T05:52:32.471Z,63.27
2019-05-30T05:54:59.918Z,63.41
2019-05-30T05:57:27.366Z,63.77
2019-05-30T05:59:54.799Z,63.56
2019-05-30T06:02:23.275Z,63.47
2019-05-30T06:04:49.706Z,63.35
2019-05-30T06:07:18.126Z,63.42
2019-05-30T06:09:44.617Z,63.22
2019-05-30T06:12:12.031Z,63.74
2019-05-30T06:14:39.481Z,63.12
2019-05-30T06:17:06.919Z,63.49
2019-05-30T06:19:46.037Z,63.40
2019-05-30T06:22:01.865Z,63.58
2019-05-30T06:24:29.311Z,64.53
2019-05-30T06:26:56.772Z,63.92
2019-05-30T06:29:24.230Z,63.71
2019-05-30T06:31:51.666Z,63.87
2019-05-30T06:34:29.206Z,64.64
2019-05-30T06:36:47.240Z,65.14
2019-05-30T06:39:14.756Z,64.77
2019-05-30T06:41:42.224Z,65.26
2019-05-30T06:44:09.739Z,65.66
2019-05-30T06:46:37.305Z,65.32
2019-05-30T06:49:05.678Z,65.78
2019-05-30T06:51:33.190Z,65.01
2019-05-30T06:54:00.615Z,66.17
2019-05-30T06:56:29.400Z,66.50
2019-05-30T06:58:55.556Z,66.32
2019-05-30T07:01:23.784Z,66.38
2019-05-30T07:03:50.580Z,67.34
2019-05-30T07:06:18.238Z,67.72
2019-05-30T07:08:45.464Z,68.50
2019-05-30T07:11:12.911Z,69.09
2019-05-30T07:13:40.338Z,69.23
2019-05-30T07:16:07.798Z,69.70
2019-05-30T07:18:36.763Z,69.55
2019-05-30T07:21:02.696Z,70.08
2019-05-30T07:23:30.304Z,70.02
2019-05-30T07:25:57.681Z,69.74
2019-05-30T07:28:25.823Z,70.26
2019-05-30T07:30:52.893Z,70.25
2019-05-30T07:33:20.341Z,69.93
2019-05-30T07:35:49.007Z,70.40
2019-05-30T07:38:16.562Z,70.18
2019-05-30T07:40:44.125Z,70.79
2019-05-30T07:43:12.863Z,71.01
2019-05-30T07:45:40.337Z,72.38
2019-05-30T07:48:07.766Z,71.59
2019-05-30T07:50:35.197Z,71.08
2019-05-30T07:53:02.625Z,73.23
2019-05-30T07:55:30.970Z,73.42
2019-05-30T07:57:57.535Z,73.86
2019-05-30T08:00:25.021Z,74.21
2019-05-30T08:02:53.320Z,74.25
2019-05-30T08:05:24.706Z,74.35
2019-05-30T08:07:48.519Z,74.23
2019-05-30T08:10:15.977Z,74.33
2019-05-30T08:12:43.403Z,74.70
2019-05-30T08:15:10.884Z,73.79
2019-05-30T08:17:38.324Z,73.64
2019-05-30T08:20:05.770Z,73.13
2019-05-30T08:22:34.144Z,72.97
2019-05-30T08:25:00.668Z,72.91
2019-05-30T08:27:28.309Z,71.20
2019-05-30T08:29:55.751Z,71.64
2019-05-30T08:32:23.190Z,71.92
2019-05-30T08:34:50.636Z,71.71
2019-05-30T08:37:18.113Z,70.53
2019-05-30T08:39:45.550Z,70.85
2019-05-30T08:42:13.586Z,70.39
2019-05-30T08:44:41.027Z,70.49
2019-05-30T08:47:08.480Z,70.32
2019-05-30T08:49:36.173Z,70.30
2019-05-30T08:52:03.468Z,70.89
2019-05-30T08:54:30.903Z,71.29
2019-05-30T08:56:58.372Z,70.10
2019-05-30T08:59:25.825Z,70.25
2019-05-30T09:01:53.419Z,70.34
2019-05-30T09:04:20.777Z,69.79
2019-05-30T09:06:48.210Z,69.99
2019-05-30T09:09:15.673Z,70.56
2019-05-30T09:11:44.462Z,70.18
2019-05-30T09:14:12.885Z,70.00
2019-05-30T09:16:40.432Z,69.78
2019-05-30T09:19:07.894Z,70.07
2019-05-30T09:21:35.360Z,70.12
2019-05-30T09:24:02.890Z,70.12
2019-05-30T09:26:30.303Z,69.76
2019-05-30T09:28:57.719Z,69.88
2019-05-30T09:31:25.162Z,70.01
2019-05-30T09:33:52.907Z,70.83
2019-05-30T09:36:20.338Z,70.93
2019-05-30T09:38:47.798Z,71.33
2019-05-30T09:41:15.231Z,70.69
2019-05-30T09:43:43.368Z,69.73
2019-05-30T09:46:10.132Z,70.13
2019-05-30T09:48:37.589Z,70.08
2019-05-30T09:51:05.037Z,70.57
2019-05-30T09:53:32.490Z,70.88
2019-05-30T09:55:59.964Z,70.75
2019-05-30T09:58:27.382Z,70.86
2019-05-30T10:00:54.827Z,69.75
2019-05-30T10:03:22.292Z,70.10
2019-05-30T10:05:50.570Z,70.25
2019-05-30T10:08:17.221Z,69.34
2019-05-30T10:10:45.725Z,69.03
2019-05-30T10:13:12.852Z,69.84
2019-05-30T10:15:40.371Z,69.98
2019-05-30T10:18:07.796Z,70.15
2019-05-30T10:20:35.245Z,70.01
2019-05-30T10:23:03.692Z,70.28
2019-05-30T10:25:30.165Z,70.60
2019-05-30T10:27:57.831Z,71.20
2019-05-30T10:30:25.141Z,70.97
2019-05-30T10:32:53.653Z,71.77
2019-05-30T10:35:21.147Z,70.85
2019-05-30T10:37:49.179Z,71.41
2019-05-30T10:40:16.171Z,71.50
2019-05-30T10:42:43.643Z,71.71
2019-05-30T10:45:11.081Z,71.22
2019-05-30T10:47:38.519Z,70.68
2019-05-30T10:50:05.976Z,70.57
2019-05-30T10:52:33.411Z,70.89
2019-05-30T10:55:00.850Z,70.53
2019-05-30T10:57:28.280Z,70.42
2019-05-30T10:59:56.781Z,70.67
2019-05-30T11:02:23.219Z,70.68
2019-05-30T11:04:51.147Z,71.81
2019-05-30T11:07:53.140Z,71.87
2019-05-30T11:10:11.473Z,71.98
2019-05-30T11:12:38.958Z,72.66
2019-05-30T11:15:06.393Z,73.06
2019-05-30T11:17:33.868Z,73.16
2019-05-30T11:20:02.046Z,73.39
2019-05-30T11:22:29.513Z,73.23
2019-05-30T11:24:56.958Z,73.09
2019-05-30T11:27:24.375Z,73.03
2019-05-30T11:29:52.877Z,73.25
2019-05-30T11:32:19.335Z,73.82
2019-05-30T11:34:46.907Z,73.41
2019-05-30T11:37:18.606Z,72.52
2019-05-30T11:39:41.825Z,73.57
2019-05-30T11:42:09.266Z,73.64
2019-05-30T11:44:36.706Z,73.27
2019-05-30T11:47:04.134Z,74.87
2019-05-30T11:49:31.547Z,75.39
2019-05-30T11:51:59.972Z,75.63
2019-05-30T11:54:26.499Z,75.52
2019-05-30T11:56:54.044Z,75.93
2019-05-30T11:59:21.426Z,76.27
2019-05-30T12:01:50.170Z,76.13
2019-05-30T12:04:16.372Z,75.55
2019-05-30T12:06:43.841Z,74.69
2019-05-30T12:09:14.535Z,76.21
2019-05-30T12:11:38.771Z,74.87
2019-05-30T12:14:06.219Z,75.21
2019-05-30T12:16:33.708Z,74.04
2019-05-30T12:19:01.952Z,74.79
2019-05-30T12:21:29.958Z,75.45
2019-05-30T12:23:56.098Z,75.72
2019-05-30T12:26:23.522Z,75.87
2019-05-30T12:28:52.108Z,76.69
2019-05-30T12:31:19.549Z,77.34
2019-05-30T12:33:48.042Z,77.50
2019-05-30T12:36:15.482Z,78.31
2019-05-30T12:38:42.936Z,78.23
2019-05-30T12:41:10.376Z,78.30
2019-05-30T12:43:37.878Z,77.40
2019-05-30T12:46:05.312Z,78.02
2019-05-30T12:48:32.772Z,78.84
2019-05-30T12:51:01.374Z,78.09
2019-05-30T12:53:27.663Z,78.23
2019-05-30T12:55:56.312Z,78.57
2019-05-30T12:58:22.566Z,78.79
2019-05-30T13:00:50.327Z,78.20
2019-05-30T13:03:18.485Z,78.57
2019-05-30T13:05:45.915Z,78.61
2019-05-30T13:08:21.249Z,78.18
2019-05-30T13:10:40.838Z,78.11
2019-05-30T13:13:08.270Z,78.92
2019-05-30T13:15:35.733Z,78.94
2019-05-30T13:18:03.193Z,79.35
2019-05-30T13:20:30.648Z,79.25
2019-05-30T13:22:58.443Z,78.70
2019-05-30T13:25:25.571Z,78.78
2019-05-30T13:27:53.022Z,78.72
2019-05-30T13:30:20.458Z,78.19
2019-05-30T13:32:47.909Z,78.77
2019-05-30T13:35:15.335Z,78.44
2019-05-30T13:37:42.771Z,78.31
2019-05-30T13:40:24.295Z,78.32
2019-05-30T13:42:37.695Z,78.48
2019-05-30T13:45:06.050Z,78.54
2019-05-30T13:47:32.705Z,78.87
2019-05-30T13:50:00.724Z,78.65
2019-05-30T13:52:27.624Z,79.85
2019-05-30T13:54:55.083Z,80.11
2019-05-30T13:57:22.521Z,79.83
2019-05-30T13:59:49.999Z,79.01
2019-05-30T14:02:17.435Z,79.48
2019-05-30T14:04:44.894Z,80.13
2019-05-30T14:07:12.383Z,80.01
2019-05-30T14:09:39.825Z,80.60
2019-05-30T14:12:07.281Z,81.19
2019-05-30T14:14:34.722Z,81.00
2019-05-30T14:17:02.835Z,81.54
2019-05-30T14:19:29.649Z,82.39
2019-05-30T14:21:57.106Z,82.90
2019-05-30T14:24:24.570Z,83.42
2019-05-30T14:26:52.023Z,84.59
2019-05-30T14:29:20.113Z,84.22
2019-05-30T14:31:47.571Z,84.06
2019-05-30T14:34:15.039Z,83.50
2019-05-30T14:36:42.486Z,83.43
2019-05-30T14:39:11.112Z,82.47
2019-05-30T14:41:37.402Z,82.52
2019-05-30T14:44:05.165Z,81.98
2019-05-30T14:46:32.319Z,81.33
2019-05-30T14:48:59.806Z,80.46
2019-05-30T14:51:27.271Z,80.54
2019-05-30T14:53:54.768Z,80.99
2019-05-30T14:56:22.246Z,80.04
2019-05-30T14:58:50.786Z,80.54
2019-05-30T15:01:18.254Z,80.34
2019-05-30T15:03:46.186Z,80.06
2019-05-30T15:06:16.308Z,80.08
2019-05-30T15:08:41.133Z,80.50
2019-05-30T15:11:09.479Z,80.50
2019-05-30T15:13:36.086Z,81.05
2019-05-30T15:16:04.694Z,81.42
2019-05-30T15:18:30.994Z,80.55
2019-05-30T15:20:58.431Z,80.16
2019-05-30T15:23:26.616Z,80.62
2019-05-30T15:25:54.238Z,80.88
2019-05-30T15:28:22.111Z,80.24
2019-05-30T15:30:49.544Z,81.06
2019-05-30T15:33:16.977Z,81.47
2019-05-30T15:35:44.468Z,81.08
2019-05-30T15:38:12.894Z,80.69
2019-05-30T15:40:39.386Z,80.35
2019-05-30T15:43:07.279Z,80.48
2019-05-30T15:45:34.263Z,80.30
2019-05-30T15:48:01.681Z,80.32
2019-05-30T15:50:29.142Z,80.82
2019-05-30T15:52:56.573Z,80.70
2019-05-30T15:55:24.035Z,80.50
2019-05-30T15:57:52.598Z,80.20
2019-05-30T16:00:20.056Z,80.34
2019-05-30T16:02:47.477Z,79.37
2019-05-30T16:05:14.956Z,79.65
2019-05-30T16:07:42.375Z,79.81
2019-05-30T16:10:10.945Z,79.51
2019-05-30T16:12:38.054Z,80.05
2019-05-30T16:15:06.197Z,79.59
2019-05-30T16:17:33.644Z,79.16
2019-05-30T16:20:01.069Z,79.35
2019-05-30T16:22:28.491Z,79.06
2019-05-30T16:24:55.945Z,78.15
2019-05-30T16:27:23.367Z,77.74
2019-05-30T16:29:50.809Z,78.29
2019-05-30T16:32:18.732Z,78.37
2019-05-30T16:34:45.794Z,77.06
2019-05-30T16:37:14.167Z,77.52
2019-05-30T16:39:40.742Z,76.98
2019-05-30T16:42:08.181Z,75.98
2019-05-30T16:44:35.633Z,75.25
2019-05-30T16:47:03.065Z,74.99
2019-05-30T16:49:30.511Z,74.33
2019-05-30T16:51:57.965Z,75.24
2019-05-30T16:54:25.397Z,74.24
2019-05-30T16:56:52.943Z,73.80
2019-05-30T16:59:20.845Z,75.32
2019-05-30T17:01:57.318Z,74.59
2019-05-30T17:04:16.769Z,75.26
2019-05-30T17:06:42.882Z,75.30
2019-05-30T17:09:10.316Z,76.14
2019-05-30T17:11:37.768Z,76.08
2019-05-30T17:14:05.208Z,76.23
2019-05-30T17:16:32.646Z,76.10
2019-05-30T17:19:00.123Z,76.07
2019-05-30T17:21:27.577Z,75.42
2019-05-30T17:23:55.003Z,75.99
2019-05-30T17:26:23.488Z,76.80
2019-05-30T17:28:50.910Z,75.96
2019-05-30T17:31:19.703Z,76.87
2019-05-30T17:33:46.621Z,75.99
2019-05-30T17:36:14.054Z,76.72
2019-05-30T17:38:41.514Z,76.90
2019-05-30T17:41:08.974Z,77.20
2019-05-30T17:43:36.403Z,77.05
2019-05-30T17:46:07.491Z,77.23
2019-05-30T17:48:31.296Z,76.87
2019-05-30T17:50:58.752Z,76.53
2019-05-30T17:53:26.199Z,77.28
2019-05-30T17:55:53.938Z,77.45
2019-05-30T17:58:21.899Z,76.91
2019-05-30T18:00:48.865Z,77.56
2019-05-30T18:03:16.307Z,77.22
2019-05-30T18:05:43.743Z,77.34
2019-05-30T18:08:11.146Z,77.74
2019-05-30T18:10:52.777Z,77.35
2019-05-30T18:13:06.079Z,76.46
2019-05-30T18:15:33.543Z,76.69
2019-05-30T18:18:00.958Z,76.98
2019-05-30T18:20:29.387Z,77.56
2019-05-30T18:22:55.902Z,76.93
2019-05-30T18:25:23.611Z,76.58
2019-05-30T18:27:50.824Z,77.26
2019-05-30T18:30:18.283Z,76.17
2019-05-30T18:32:45.695Z,75.50
2019-05-30T18:35:13.153Z,76.29
2019-05-30T18:37:40.634Z,76.87
2019-05-30T18:40:08.085Z,76.56
2019-05-30T18:42:35.532Z,75.90
2019-05-30T18:45:02.971Z,76.23
2019-05-30T18:47:31.187Z,76.31
2019-05-30T18:49:57.872Z,76.02
2019-05-30T18:52:26.132Z,76.51
2019-05-30T18:54:52.753Z,77.25
2019-05-30T18:57:20.190Z,77.07
2019-05-30T18:59:47.617Z,76.83
2019-05-30T19:02:18.393Z,77.33
2019-05-30T19:04:42.532Z,76.76
2019-05-30T19:07:09.963Z,77.00
2019-05-30T19:09:37.602Z,76.97
2019-05-30T19:12:04.965Z,77.42
2019-05-30T19:14:34.180Z,77.30
2019-05-30T19:16:59.941Z,77.83
2019-05-30T19:19:27.616Z,77.14
2019-05-30T19:21:55.552Z,77.18
2019-05-30T19:24:23.005Z,77.94
2019-05-30T19:26:50.468Z,77.61
2019-05-30T19:29:17.915Z,77.45
2019-05-30T19:31:45.370Z,77.17
2019-05-30T19:34:12.804Z,77.54
2019-05-30T19:36:40.215Z,77.25
2019-05-30T19:39:07.668Z,78.18
2019-05-30T19:41:45.937Z,77.63
2019-05-30T19:44:03.447Z,77.42
2019-05-30T19:46:32.199Z,77.56
2019-05-30T19:48:58.393Z,77.94
2019-05-30T19:51:26.342Z,78.37
2019-05-30T19:53:53.969Z,77.21
2019-05-30T19:56:21.440Z,76.85
2019-05-30T19:58:48.945Z,76.80
2019-05-30T20:01:16.392Z,77.35
2019-05-30T20:03:46.993Z,77.23
2019-05-30T20:06:11.512Z,76.66
2019-05-30T20:08:52.534Z,77.20
2019-05-30T20:11:06.963Z,76.58
2019-05-30T20:13:35.243Z,76.84
2019-05-30T20:16:02.819Z,77.00
2019-05-30T20:18:31.462Z,76.50
2019-05-30T20:20:58.268Z,75.82
2019-05-30T20:23:25.198Z,76.05
2019-05-30T20:25:52.685Z,75.35
2019-05-30T20:28:20.121Z,75.82
2019-05-30T20:30:47.601Z,76.78
2019-05-30T20:33:15.033Z,77.05
2019-05-30T20:35:43.457Z,78.24
2019-05-30T20:38:09.953Z,77.64
2019-05-30T20:40:37.419Z,77.38
2019-05-30T20:43:04.851Z,77.35
2019-05-30T20:45:32.318Z,77.23
2019-05-30T20:47:59.730Z,76.51
2019-05-30T20:50:27.192Z,76.09
2019-05-30T20:52:54.622Z,75.84
2019-05-30T20:55:22.080Z,75.78
2019-05-30T20:57:49.531Z,77.26
2019-05-30T21:00:16.989Z,77.89
2019-05-30T21:02:44.407Z,78.37
2019-05-30T21:05:11.842Z,78.89
2019-05-30T21:07:39.833Z,79.75
2019-05-30T21:10:06.716Z,79.80
2019-05-30T21:12:41.259Z,80.14
2019-05-30T21:15:02.661Z,79.77
2019-05-30T21:17:30.113Z,79.25
2019-05-30T21:19:57.571Z,78.03
2019-05-30T21:22:25.010Z,78.33
2019-05-30T21:24:52.423Z,78.33
2019-05-30T21:27:19.874Z,79.12
2019-05-30T21:29:47.621Z,79.69
2019-05-30T21:32:14.849Z,79.16
2019-05-30T21:34:42.658Z,78.36
2019-05-30T21:37:09.716Z,77.96
2019-05-30T21:39:37.918Z,78.69
2019-05-30T21:42:05.759Z,78.29
2019-05-30T21:44:33.124Z,79.35
2019-05-30T21:47:00.566Z,80.11
2019-05-30T21:49:28.041Z,79.06
2019-05-30T21:51:55.459Z,78.68
2019-05-30T21:54:22.887Z,79.68
2019-05-30T21:56:50.408Z,79.25
2019-05-30T21:59:17.841Z,78.88
2019-05-30T22:01:46.555Z,79.50
2019-05-30T22:04:12.763Z,79.66
2019-05-30T22:06:40.858Z,79.43
2019-05-30T22:09:07.650Z,79.75
2019-05-30T22:11:35.097Z,78.50
2019-05-30T22:14:02.535Z,77.87
2019-05-30T22:16:29.973Z,77.57
2019-05-30T22:18:57.439Z,77.79
2019-05-30T22:21:25.005Z,77.77
2019-05-30T22:23:52.652Z,78.38
2019-05-30T22:26:20.103Z,78.64
2019-05-30T22:28:48.409Z,78.39
2019-05-30T22:31:15.781Z,77.91
2019-05-30T22:33:44.475Z,78.83
2019-05-30T22:36:10.738Z,77.33
2019-05-30T22:38:38.174Z,76.32
2019-05-30T22:41:05.649Z,77.25
2019-05-30T22:43:33.083Z,76.10
2019-05-30T22:46:00.694Z,76.35
2019-05-30T22:48:28.151Z,75.91
2019-05-30T22:50:55.610Z,76.25
2019-05-30T22:53:23.031Z,75.71
2019-05-30T22:55:51.980Z,77.57
2019-05-30T22:58:17.953Z,78.13
2019-05-30T23:00:45.951Z,77.92
2019-05-30T23:03:12.842Z,77.42
2019-05-30T23:05:40.291Z,78.03
2019-05-30T23:08:07.766Z,76.89
2019-05-30T23:10:35.213Z,77.11
2019-05-30T23:13:02.634Z,77.40
2019-05-30T23:15:30.878Z,77.71
2019-05-30T23:17:58.322Z,77.44
2019-05-30T23:20:25.780Z,78.35
2019-05-30T23:22:53.341Z,78.18
2019-05-30T23:25:21.239Z,78.26
2019-05-30T23:27:49.495Z,77.83
2019-05-30T23:30:16.139Z,77.65
2019-05-30T23:32:43.585Z,77.49
2019-05-30T23:35:11.050Z,77.70
2019-05-30T23:37:38.501Z,77.35
2019-05-30T23:40:05.953Z,76.86
2019-05-30T23:42:33.385Z,76.81
2019-05-30T23:45:00.859Z,77.23
2019-05-30T23:47:28.389Z,77.64
2019-05-30T23:49:55.986Z,77.33
2019-05-30T23:52:24.078Z,77.90
2019-05-30T23:54:52.172Z,78.49
2019-05-30T23:57:19.005Z,78.70
2019-05-30T23:59:46.439Z,78.71
